• Join FlightAware (Why Join?)
  • Login
  • US Flag 
05:54PM EDT


 

Airport Tracker/Info


-or-


 

Live Flight TrackerFlight Track Log ✈ EJM53 ✈ 02-Jul-2013 ✈ KASE - KACK

Flight Track Log - Related Links

Times and Time Zones

All times are in EDT time to prevent confusion due to time zone crossing. See the EJM53 flight status page for this flight to view local times or setup timezone preferences in your user account.

Time Position Orientation Groundspeed Altitude Reporting Facility
EDT Latitude Longitude Course Direction KTS MPH feet Rate Location/Type
03:48PM 40.7658 -92.8667 79° East 453 521 41,000  Level Minneapolis Center
03:49PM 40.7808 -92.7675 79° East 453 521 41,000  Level Chicago Center
03:50PM 40.8081 -92.6039 78° East 455 524 41,000  Level Chicago Center
03:51PM 40.8342 -92.4414 78° East 454 522 41,000  Level Chicago Center
03:52PM 40.8661 -92.2456 78° East 456 525 41,000  Level Chicago Center
03:53PM 40.8928 -92.0819 78° East 458 527 41,000  Level Chicago Center
03:54PM 40.9186 -91.9183 78° East 457 526 41,000  Level Chicago Center
03:55PM 40.9433 -91.7553 79° East 457 526 41,000  Level Chicago Center
03:56PM 40.9700 -91.5908 78° East 459 528 41,000  Level Chicago Center
03:57PM 40.9969 -91.4142 79° East 459 528 41,000  Level Chicago Center
03:58PM 41.0219 -91.2481 79° East 460 529 41,000  Level Chicago Center
03:59PM 41.0531 -91.0478 78° East 462 532 41,000  Level Chicago Center
04:00PM 41.0764 -90.8792 80° East 465 535 41,000  Level Chicago Center
04:01PM 41.1017 -90.7117 79° East 464 534 41,000  Level Chicago Center
04:02PM 41.1272 -90.5439 79° East 463 533 41,000  Level Chicago Center
04:03PM 41.1508 -90.3747 79° East 464 534 41,000  Level Chicago Center
04:04PM 41.1742 -90.2067 79° East 461 531 41,000  Level Chicago Center
04:05PM 41.1986 -90.0381 79° East 462 532 41,000  Level Chicago Center
04:06PM 41.2219 -89.8678 80° East 466 536 41,000  Level Chicago Center
04:07PM 41.2497 -89.6642 80° East 464 534 41,000  Level Chicago Center
04:09PM 41.2736 -89.4936 79° East 467 537 41,000  Level Chicago Center
04:10PM 41.2958 -89.3231 80° East 468 539 41,000  Level Chicago Center
04:11PM 41.3194 -89.1481 80° East 465 535 41,000  Level Chicago Center
04:12PM 41.3422 -88.9783 80° East 476 548 41,000  Level Chicago Center
04:13PM 41.3631 -88.8078 81° East 474 545 41,000  Level Chicago Center
04:14PM 41.3881 -88.6044 81° East 468 539 41,000  Level Chicago Center
04:15PM 41.4100 -88.4344 80° East 469 540 41,000  Level Chicago Center
04:16PM 41.4319 -88.2633 80° East 469 540 41,000  Level Chicago Center
04:17PM 41.4544 -88.0844 80° East 488 562 41,000  Level Chicago Center
04:18PM 41.4792 -87.9131 79° East 473 544 41,000  Level Chicago Center
04:19PM 41.4972 -87.7281 83° East 471 542 41,000  Level Chicago Center
04:20PM 41.5169 -87.5594 81° East 464 534 41,000  Level Chicago Center
04:21PM 41.5361 -87.3925 81° East 459 528 41,000  Level Chicago Center
04:22PM 41.5597 -87.1889 81° East 465 535 41,000  Level Chicago Center
04:23PM 41.5789 -87.0194 81° East 466 536 41,000  Level Chicago Center
04:24PM 41.5975 -86.8500 82° East 466 536 41,000  Level Chicago Center
04:25PM 41.6147 -86.6828 82° East 469 540 41,000  Level Chicago Center
04:26PM 41.6353 -86.5097 81° East 473 544 41,000  Level Chicago Center
04:27PM 41.6564 -86.2997 82° East 475 547 41,000  Level Chicago Center
04:28PM 41.6756 -86.1247 82° East 478 550 41,000  Level Chicago Center
04:29PM 41.6933 -85.9486 82° East 479 551 41,000  Level Chicago Center
04:30PM 41.7119 -85.7714 82° East 478 550 41,000  Level Chicago Center
04:31PM 41.7308 -85.5939 82° East 479 551 41,000  Level Chicago Center
04:32PM 41.7481 -85.3967 83° East 476 548 41,000  Level Chicago Center
04:33PM 41.7672 -85.2261 81° East 490 564 41,000  Level Chicago Center
04:34PM 41.7844 -85.0450 83° East 497 572 41,000  Level Chicago Center
04:35PM 41.8033 -84.8267 83° East 496 571 41,000  Level Chicago Center
04:36PM 41.8211 -84.6447 82° East 494 568 41,000  Level Chicago Center
04:37PM 41.8375 -84.4628 83° East 494 568 41,000  Level Chicago Center
04:39PM 41.8539 -84.2808 83° East 493 567 41,000  Level Chicago Center
04:40PM 41.8686 -84.1003 84° East 489 563 41,000  Level Chicago Center
04:41PM 41.8842 -83.9189 83° East 491 565 41,000  Level Chicago Center
04:42PM 41.9025 -83.7008 83° East 491 565 41,000  Level Chicago Center
04:43PM 41.9192 -83.4828 84° East 489 563 41,000  Level Cleveland Center
04:44PM 41.9342 -83.2992 84° East 489 563 41,000  Level Cleveland Center
04:45PM 41.9442 -83.1319 85° East 494 568 41,000  Level Cleveland Center
04:46PM 41.9564 -82.9481 85° East 499 574 41,000  Level Cleveland Center
04:47PM 41.9747 -82.7672 82° East 494 568 41,000  Level Cleveland Center
04:48PM 41.9886 -82.5639 85° East 501 577 41,000  Level Cleveland Center
04:49PM 42.0000 -82.3797 85° East 495 570 41,000  Level Cleveland Center
04:50PM 42.0153 -82.1928 84° East 495 570 41,000  Level Cleveland Center
04:51PM 42.0322 -82.0144 83° East 495 570 41,000  Level Cleveland Center
04:52PM 42.0408 -81.8272 86° East 495 570 41,000  Level Cleveland Center
04:53PM 42.0531 -81.6403 85° East 500 575 41,000  Level Cleveland Center
04:54PM 42.0672 -81.4586 84° East 500 575 41,000  Level Cleveland Center
04:55PM 42.0789 -81.2714 85° East 493 567 41,000  Level Cleveland Center
04:56PM 42.0881 -81.0897 86° East 493 567 41,000  Level Cleveland Center
04:57PM 42.0992 -80.9106 85° East 493 567 41,000  Level Cleveland Center
04:58PM 42.1078 -80.7428 86° East 493 567 41,000  Level Cleveland Center
04:59PM 42.1183 -80.5608 85° East 493 567 41,000  Level Cleveland Center
05:00PM 42.1286 -80.3789 86° East 493 567 41,000  Level Cleveland Center
05:01PM 42.1511 -80.1939 81° East 493 567 41,000  Level Cleveland Center
05:02PM 42.1817 -80.0089 77° East 504 580 41,000  Level Cleveland Center
05:03PM 42.2139 -79.8292 76° East 504 580 41,000  Level Cleveland Center
05:04PM 42.2500 -79.6267 76° East 499 574 41,000  Level Cleveland Center
05:05PM 42.2794 -79.4439 78° East 499 574 41,000  Level Cleveland Center
05:06PM 42.3108 -79.2608 77° East 499 574 41,000  Level Cleveland Center
05:07PM 42.3419 -79.0775 77° East 493 567 41,000  Level Cleveland Center
05:08PM 42.3672 -78.9336 77° East 488 562 41,000  Level Cleveland Center
05:09PM 42.3994 -78.7331 78° East 488 562 41,000  Level Cleveland Center
05:10PM 42.4297 -78.5494 77° East 488 562 41,000  Level Cleveland Center
05:11PM 42.4597 -78.3683 77° East 488 562 41,000  Level Cleveland Center
05:12PM 42.4872 -78.1786 79° East 488 562 41,000  Level Cleveland Center
05:13PM 42.5147 -77.9972 78° East 488 562 41,000  Level Cleveland Center
05:14PM 42.5517 -77.7928 76° East 488 562 41,000  Level Cleveland Center
05:15PM 42.5781 -77.6056 79° East 494 568 41,000  Level Cleveland Center
05:16PM 42.6064 -77.4122 79° East 494 568 41,000  Level Cleveland Center
05:17PM 42.6347 -77.2331 78° East 500 575 41,000  Level Cleveland Center
05:18PM 42.6578 -77.0822 78° East 504 580 41,000  Level Boston Center
05:19PM 42.6842 -76.8950 79° East 504 580 41,000  Level Boston Center
05:20PM 42.7153 -76.6767 79° East 499 574 41,000  Level Boston Center
05:21PM 42.7428 -76.4947 78° East 499 574 41,000  Level Boston Center
05:22PM 42.7681 -76.3097 79° East 499 574 41,000  Level Boston Center
05:23PM 42.7969 -76.1275 78° East 499 574 41,000  Level Boston Center
05:24PM 42.8217 -75.9419 80° East 499 574 41,000  Level Boston Center
05:25PM 42.8442 -75.7536 81° East 499 574 41,000  Level Boston Center
05:26PM 42.8700 -75.5678 79° East 499 574 41,000  Level Boston Center
05:27PM 42.9011 -75.3428 79° East 499 574 41,000  Level Boston Center
05:28PM 42.9225 -75.1536 81° East 504 580 41,000  Level Boston Center
05:29PM 42.9497 -74.9675 79° East 504 580 41,000  Level Boston Center
05:30PM 42.9744 -74.7783 80° East 504 580 41,000  Level Boston Center
05:31PM 42.9950 -74.5889 81° East 504 580 41,000  Level Boston Center
05:32PM 43.0189 -74.4167 79° East 509 586 41,000  Level Boston Center
05:33PM 43.0408 -74.2269 81° East 509 586 41,000  Level Boston Center
05:34PM 43.0644 -74.0372 80° East 509 586 41,000  Level Boston Center
05:35PM 43.0878 -73.8472 80° East 504 580 41,000  Level Boston Center
05:36PM 43.1089 -73.6572 81° East 504 580 41,000  Level Boston Center
05:37PM 43.1294 -73.4672 82° East 504 580 41,000  Level Boston Center
05:38PM 43.1603 -73.2569 79° East 504 580 41,000  Level Boston Center
05:39PM 43.1844 -73.0636 80° East 504 580 41,000  Level Boston Center
05:40PM 43.2042 -72.8703 82° East 504 580 41,000  Level Boston Center
05:41PM 43.2256 -72.6822 81° East 504 580 41,000  Level Boston Center
05:42PM 43.2403 -72.5283 82° East 504 580 41,000  Level Boston Center
05:43PM 43.2631 -72.3003 82° East 504 580 41,000  Level Boston Center
05:44PM 43.2794 -72.1436 82° East 504 580 41,000  Level Boston Center
05:45PM 43.2494 -71.8928 99° East 480 552 41,000  Level Boston Center
05:46PM 43.2214 -71.7136 102° East 480 552 41,000 -300 Level Boston Center
05:47PM 43.1969 -71.5317 100° East 485 558 40,400 -840 Descending Boston Center
05:48PM 43.1706 -71.3497 101° East 485 558 39,400 -1,020 Descending Boston Center
05:49PM 43.1394 -71.1711 103° East 485 558 38,400 -1,080 Descending Boston Center
05:50PM 43.1122 -70.9783 101° East 490 564 37,300 -1,320 Descending Boston Center
05:51PM 43.0825 -70.7914 102° East 496 571 35,800 -1,500 Descending Boston Center
05:52PM 43.0483 -70.6019 104° East 506 582 34,300 -1,500 Descending Boston Center
05:53PM 42.9728 -70.4425 123° Southeast 496 571 32,800 -1,500 Descending Boston Center
05:54PM 42.8625 -70.3467 147° Southeast 456 525 31,300 -1,980 Descending Boston Center
05:55PM 42.7344 -70.2917 162° South 461 531 28,900 -2,760 Descending Boston Center
05:56PM 42.6103 -70.2339 161° South 461 531 25,800 -3,000 Descending Boston Center
05:57PM 42.4928 -70.1931 166° South 461 531 22,900 -2,940 Descending Boston Center
05:58PM 42.3836 -70.1578 167° South 436 502 20,000 -2,700 Descending Boston Center
05:59PM 42.2767 -70.1222 166° South 408 470 17,600 -2,580 Descending Boston Center
06:00PM 42.1758 -70.0897 167° South 392 451 14,900 -2,640 Descending Boston Center
06:01PM 42.0794 -70.0569 166° South 373 429 12,400 -2,760 Descending Boston Center
06:02PM 41.9789 -70.0383 172° South 361 415 8,900 -1,920 Descending Boston Center
06:04PM 41.8742 -70.0117 169° South 329 379 7,900 -960 Descending Boston Center
06:05PM 41.8008 -70.0006 174° South 290 334 6,900 -1,020 Descending Boston Center
06:06PM 41.7278 -69.9867 172° South 270 311 5,900 -1,080 Descending Boston Center
06:07PM 41.6603 -69.9558 161° South 265 305 4,800 -1,080 Descending Boston Center
06:08PM 41.5911 -69.9364 168° South 260 299 3,800 -1,020 Descending Boston Center
06:09PM 41.5239 -69.9194 169° South 260 299 2,800 -900 Descending Boston Center
06:10PM 41.4550 -69.9056 171° South 260 299 1,900 -420 Descending Boston Center
06:11PM 41.3881 -69.8972 175° South 237 273 2,000  Climbing Boston Center
06:12PM 41.3494 -69.9375 218° Southwest 190 219 2,000 -120 Level Boston Center
06:13PM 41.3231 -69.9717 224° Southwest 161 185 1,800 -420 Descending Boston Center
06:14PM 41.3008 -70.0058 229° Southwest 124 143 1,100 -600 Descending Boston Center
06:15PM 41.2825 -70.0314 226° Southwest 117 135 600 -360 Descending Boston Center
06:16PM 41.2583 -70.0625 224° Southwest 112 129 400 5,160 Descending Boston Center
06:17PM 41.2381 -70.0908 226° Southwest 112 129 11,000 10,560 Climbing Boston Center
06:19PM 41.2531 -70.0603 57° Northeast  Level Estimated
06:26PM 41.2531 -70.0603 72° East  Level Estimated
06:27PM 41.2531 -70.0603 72° East  Level Estimated
06:28PM 41.2531 -70.0603 72° East  Level Estimated
06:29PM 41.2531 -70.0603 72° East  Level Estimated
06:30PM 41.2531 -70.0603 72° East  Level Estimated